sensor_id;sensor_type;location;lat;lon;timestamp;P1;durP1;ratioP1;P2;durP2;ratioP2
67717;SDS011;54511;47.532;19.180;2022-09-12T04:58:30;9.25;;;3.58;;
67717;SDS011;54511;47.532;19.180;2022-09-12T05:02:09;5.97;;;3.00;;
67717;SDS011;54511;47.532;19.180;2022-09-12T05:05:44;7.32;;;3.10;;
67717;SDS011;54511;47.532;19.180;2022-09-12T05:12:23;8.88;;;3.40;;
67717;SDS011;54511;47.532;19.180;2022-09-12T05:16:05;5.85;;;3.42;;
67717;SDS011;54511;47.532;19.180;2022-09-12T05:19:41;6.65;;;3.45;;
67717;SDS011;54511;47.532;19.180;2022-09-12T05:23:12;8.20;;;3.80;;
67717;SDS011;54511;47.532;19.180;2022-09-12T05:26:23;7.15;;;3.97;;
67717;SDS011;54511;47.532;19.180;2022-09-12T05:29:30;8.15;;;4.03;;
67717;SDS011;54511;47.532;19.180;2022-09-12T05:35:40;9.85;;;4.10;;
67717;SDS011;54511;47.532;19.180;2022-09-12T05:39:07;7.80;;;3.90;;
67717;SDS011;54511;47.532;19.180;2022-09-12T05:41:35;9.60;;;4.43;;
67717;SDS011;54511;47.532;19.180;2022-09-12T05:44:04;8.82;;;4.20;;
67717;SDS011;54511;47.532;19.180;2022-09-12T05:46:35;8.20;;;4.30;;
67717;SDS011;54511;47.532;19.180;2022-09-12T05:49:05;15.50;;;4.40;;
67717;SDS011;54511;47.532;19.180;2022-09-12T05:51:34;9.27;;;4.00;;
67717;SDS011;54511;47.532;19.180;2022-09-12T05:54:03;8.23;;;4.37;;
67717;SDS011;54511;47.532;19.180;2022-09-12T05:56:52;7.78;;;4.32;;
67717;SDS011;54511;47.532;19.180;2022-09-12T05:59:20;10.13;;;4.10;;
67717;SDS011;54511;47.532;19.180;2022-09-12T06:01:48;8.18;;;3.87;;
67717;SDS011;54511;47.532;19.180;2022-09-12T06:04:19;9.43;;;4.93;;
67717;SDS011;54511;47.532;19.180;2022-09-12T06:07:26;23.30;;;6.78;;
67717;SDS011;54511;47.532;19.180;2022-09-12T06:10:23;8.57;;;4.10;;
67717;SDS011;54511;47.532;19.180;2022-09-12T06:13:31;6.78;;;3.90;;
67717;SDS011;54511;47.532;19.180;2022-09-12T06:16:59;8.90;;;4.00;;
67717;SDS011;54511;47.532;19.180;2022-09-12T06:23:44;17.00;;;4.60;;
67717;SDS011;54511;47.532;19.180;2022-09-12T06:26:58;10.30;;;4.28;;
67717;SDS011;54511;47.532;19.180;2022-09-12T06:40:26;8.35;;;4.37;;
67717;SDS011;54511;47.532;19.180;2022-09-12T06:47:32;7.70;;;3.85;;
67717;SDS011;54511;47.532;19.180;2022-09-12T07:17:26;7.82;;;4.40;;
67717;SDS011;54511;47.532;19.180;2022-09-12T07:19:56;8.87;;;4.90;;
67717;SDS011;54511;47.532;19.180;2022-09-12T07:26:42;11.77;;;5.32;;
67717;SDS011;54511;47.532;19.180;2022-09-12T07:33:08;10.07;;;4.78;;
67717;SDS011;54511;47.532;19.180;2022-09-12T07:36:21;8.00;;;4.53;;
67717;SDS011;54511;47.532;19.180;2022-09-12T07:39:38;7.97;;;4.18;;
67717;SDS011;54511;47.532;19.180;2022-09-12T07:42:51;9.88;;;4.32;;
67717;SDS011;54511;47.532;19.180;2022-09-12T08:18:46;4.40;;;2.37;;
67717;SDS011;54511;47.532;19.180;2022-09-12T08:22:21;5.37;;;2.75;;
67717;SDS011;54511;47.532;19.180;2022-09-12T08:25:14;3.45;;;2.22;;
67717;SDS011;54511;47.532;19.180;2022-09-12T08:28:04;8.02;;;2.80;;
67717;SDS011;54511;47.532;19.180;2022-09-12T08:30:53;4.18;;;3.00;;
67717;SDS011;54511;47.532;19.180;2022-09-12T08:34:02;6.18;;;3.00;;
67717;SDS011;54511;47.532;19.180;2022-09-12T08:37:29;4.32;;;2.65;;
67717;SDS011;54511;47.532;19.180;2022-09-12T08:40:41;5.18;;;2.37;;
67717;SDS011;54511;47.532;19.180;2022-09-12T08:51:02;3.45;;;2.25;;
67717;SDS011;54511;47.532;19.180;2022-09-12T08:54:21;7.43;;;2.20;;
67717;SDS011;54511;47.532;19.180;2022-09-12T08:57:45;5.82;;;2.20;;
67717;SDS011;54511;47.532;19.180;2022-09-12T09:01:29;5.12;;;2.33;;
67717;SDS011;54511;47.532;19.180;2022-09-12T09:04:45;4.57;;;2.28;;
67717;SDS011;54511;47.532;19.180;2022-09-12T09:08:20;4.72;;;2.30;;
67717;SDS011;54511;47.532;19.180;2022-09-12T09:11:44;11.12;;;2.55;;
67717;SDS011;54511;47.532;19.180;2022-09-12T09:15:27;16.67;;;3.75;;
67717;SDS011;54511;47.532;19.180;2022-09-12T09:18:52;4.18;;;2.25;;
67717;SDS011;54511;47.532;19.180;2022-09-12T09:21:24;25.00;;;4.47;;
67717;SDS011;54511;47.532;19.180;2022-09-12T09:24:39;21.73;;;3.80;;
67717;SDS011;54511;47.532;19.180;2022-09-12T09:28:12;5.85;;;2.30;;
67717;SDS011;54511;47.532;19.180;2022-09-12T09:31:24;3.10;;;2.00;;
67717;SDS011;54511;47.532;19.180;2022-09-12T09:34:37;3.33;;;2.00;;
67717;SDS011;54511;47.532;19.180;2022-09-12T09:37:43;5.80;;;2.20;;
67717;SDS011;54511;47.532;19.180;2022-09-12T09:41:12;6.00;;;1.98;;
67717;SDS011;54511;47.532;19.180;2022-09-12T09:44:44;4.10;;;1.90;;
67717;SDS011;54511;47.532;19.180;2022-09-12T09:48:17;8.48;;;2.10;;
67717;SDS011;54511;47.532;19.180;2022-09-12T09:51:38;3.85;;;2.03;;
67717;SDS011;54511;47.532;19.180;2022-09-12T09:55:12;3.00;;;1.95;;
67717;SDS011;54511;47.532;19.180;2022-09-12T09:59:24;3.25;;;1.98;;
67717;SDS011;54511;47.532;19.180;2022-09-12T10:02:37;3.08;;;1.90;;
67717;SDS011;54511;47.532;19.180;2022-09-12T10:05:48;4.72;;;1.80;;
67717;SDS011;54511;47.532;19.180;2022-09-12T10:09:27;2.10;;;1.50;;
67717;SDS011;54511;47.532;19.180;2022-09-12T10:12:51;2.50;;;1.62;;
67717;SDS011;54511;47.532;19.180;2022-09-12T10:16:47;6.90;;;1.80;;
67717;SDS011;54511;47.532;19.180;2022-09-12T10:20:31;3.78;;;1.80;;
67717;SDS011;54511;47.532;19.180;2022-09-12T10:23:43;2.50;;;1.80;;
67717;SDS011;54511;47.532;19.180;2022-09-12T10:27:13;4.28;;;1.90;;
67717;SDS011;54511;47.532;19.180;2022-09-12T10:30:44;5.40;;;1.73;;
67717;SDS011;54511;47.532;19.180;2022-09-12T10:33:29;2.72;;;1.80;;
67717;SDS011;54511;47.532;19.180;2022-09-12T10:36:37;5.12;;;1.98;;
67717;SDS011;54511;47.532;19.180;2022-09-12T10:40:19;3.03;;;2.00;;
67717;SDS011;54511;47.532;19.180;2022-09-12T10:43:39;3.70;;;1.70;;
67717;SDS011;54511;47.532;19.180;2022-09-12T10:47:22;6.40;;;2.05;;
67717;SDS011;54511;47.532;19.180;2022-09-12T10:50:34;5.97;;;2.10;;
67717;SDS011;54511;47.532;19.180;2022-09-12T10:53:38;3.85;;;2.00;;
67717;SDS011;54511;47.532;19.180;2022-09-12T10:56:35;4.20;;;1.85;;
67717;SDS011;54511;47.532;19.180;2022-09-12T11:30:50;3.05;;;1.70;;
67717;SDS011;54511;47.532;19.180;2022-09-12T11:37:53;2.15;;;1.60;;
67717;SDS011;54511;47.532;19.180;2022-09-12T11:50:36;3.85;;;1.30;;
67717;SDS011;54511;47.532;19.180;2022-09-12T11:54:10;3.33;;;1.60;;
67717;SDS011;54511;47.532;19.180;2022-09-12T11:57:43;2.90;;;1.62;;
67717;SDS011;54511;47.532;19.180;2022-09-12T12:01:30;2.60;;;1.42;;
67717;SDS011;54511;47.532;19.180;2022-09-12T12:05:19;5.05;;;1.50;;
67717;SDS011;54511;47.532;19.180;2022-09-12T12:08:57;5.20;;;1.98;;
67717;SDS011;54511;47.532;19.180;2022-09-12T12:12:22;14.30;;;2.00;;
67717;SDS011;54511;47.532;19.180;2022-09-12T12:15:28;2.60;;;1.48;;
67717;SDS011;54511;47.532;19.180;2022-09-12T12:18:56;27.35;;;2.90;;
67717;SDS011;54511;47.532;19.180;2022-09-12T12:22:43;2.25;;;1.73;;
67717;SDS011;54511;47.532;19.180;2022-09-12T12:26:02;3.08;;;2.10;;
67717;SDS011;54511;47.532;19.180;2022-09-12T12:29:35;2.72;;;1.83;;
67717;SDS011;54511;47.532;19.180;2022-09-12T12:32:47;5.05;;;1.90;;
67717;SDS011;54511;47.532;19.180;2022-09-12T14:17:00;1.95;;;1.48;;
67717;SDS011;54511;47.532;19.180;2022-09-12T14:22:21;5.70;;;1.50;;
67717;SDS011;54511;47.532;19.180;2022-09-12T14:25:29;3.45;;;1.33;;
67717;SDS011;54511;47.532;19.180;2022-09-12T14:28:01;3.37;;;1.23;;
67717;SDS011;54511;47.532;19.180;2022-09-12T14:31:29;2.30;;;1.37;;
67717;SDS011;54511;47.532;19.180;2022-09-12T14:34:19;3.20;;;1.70;;
67717;SDS011;54511;47.532;19.180;2022-09-12T14:37:13;16.40;;;4.07;;
67717;SDS011;54511;47.532;19.180;2022-09-12T14:40:13;5.57;;;1.12;;
67717;SDS011;54511;47.532;19.180;2022-09-12T14:43:49;5.25;;;1.20;;
67717;SDS011;54511;47.532;19.180;2022-09-12T14:46:41;2.90;;;1.42;;
67717;SDS011;54511;47.532;19.180;2022-09-12T14:49:39;22.92;;;1.98;;
67717;SDS011;54511;47.532;19.180;2022-09-12T14:52:21;2.90;;;1.10;;
67717;SDS011;54511;47.532;19.180;2022-09-12T14:55:18;9.75;;;1.73;;
67717;SDS011;54511;47.532;19.180;2022-09-12T14:58:11;10.13;;;1.83;;
67717;SDS011;54511;47.532;19.180;2022-09-12T15:00:53;2.17;;;1.17;;
67717;SDS011;54511;47.532;19.180;2022-09-12T15:04:02;7.80;;;1.10;;
67717;SDS011;54511;47.532;19.180;2022-09-12T15:06:39;4.37;;;1.10;;
67717;SDS011;54511;47.532;19.180;2022-09-12T15:09:11;17.08;;;2.20;;
67717;SDS011;54511;47.532;19.180;2022-09-12T15:12:23;5.45;;;1.10;;
67717;SDS011;54511;47.532;19.180;2022-09-12T15:15:20;4.18;;;1.12;;
67717;SDS011;54511;47.532;19.180;2022-09-12T15:17:54;4.57;;;1.23;;
67717;SDS011;54511;47.532;19.180;2022-09-12T15:20:21;24.85;;;3.10;;
67717;SDS011;54511;47.532;19.180;2022-09-12T15:23:45;1.60;;;1.17;;
67717;SDS011;54511;47.532;19.180;2022-09-12T15:26:46;9.85;;;1.75;;
67717;SDS011;54511;47.532;19.180;2022-09-12T15:29:14;23.60;;;2.12;;
67717;SDS011;54511;47.532;19.180;2022-09-12T15:32:28;6.45;;;1.40;;
67717;SDS011;54511;47.532;19.180;2022-09-12T15:35:15;3.05;;;1.20;;
67717;SDS011;54511;47.532;19.180;2022-09-12T15:38:22;23.05;;;1.85;;
67717;SDS011;54511;47.532;19.180;2022-09-12T15:41:12;3.20;;;0.98;;
67717;SDS011;54511;47.532;19.180;2022-09-12T15:44:19;5.15;;;0.90;;
67717;SDS011;54511;47.532;19.180;2022-09-12T15:46:56;4.75;;;1.02;;
67717;SDS011;54511;47.532;19.180;2022-09-12T15:49:23;4.07;;;1.10;;
67717;SDS011;54511;47.532;19.180;2022-09-12T15:52:14;6.68;;;1.30;;
67717;SDS011;54511;47.532;19.180;2022-09-12T15:54:42;7.32;;;1.00;;
67717;SDS011;54511;47.532;19.180;2022-09-12T16:00:38;1.77;;;1.10;;
67717;SDS011;54511;47.532;19.180;2022-09-12T16:03:05;8.98;;;1.75;;
67717;SDS011;54511;47.532;19.180;2022-09-12T16:05:43;1.30;;;1.10;;
67717;SDS011;54511;47.532;19.180;2022-09-12T16:08:32;6.35;;;1.30;;
67717;SDS011;54511;47.532;19.180;2022-09-12T16:11:37;46.63;;;3.08;;
67717;SDS011;54511;47.532;19.180;2022-09-12T16:14:23;8.48;;;1.00;;
67717;SDS011;54511;47.532;19.180;2022-09-12T16:17:29;4.90;;;1.20;;
67717;SDS011;54511;47.532;19.180;2022-09-12T16:20:18;2.20;;;1.20;;
67717;SDS011;54511;47.532;19.180;2022-09-12T16:23:25;8.65;;;1.48;;
67717;SDS011;54511;47.532;19.180;2022-09-12T16:26:12;1.98;;;1.05;;
67717;SDS011;54511;47.532;19.180;2022-09-12T16:29:02;2.78;;;1.12;;
67717;SDS011;54511;47.532;19.180;2022-09-12T16:32:30;8.20;;;1.70;;
67717;SDS011;54511;47.532;19.180;2022-09-12T16:35:09;2.92;;;1.05;;
67717;SDS011;54511;47.532;19.180;2022-09-12T16:37:56;5.82;;;1.20;;
67717;SDS011;54511;47.532;19.180;2022-09-12T16:40:43;2.65;;;1.10;;
67717;SDS011;54511;47.532;19.180;2022-09-12T16:43:31;2.05;;;1.10;;
67717;SDS011;54511;47.532;19.180;2022-09-12T16:46:03;2.58;;;1.17;;
67717;SDS011;54511;47.532;19.180;2022-09-12T16:49:10;5.03;;;1.33;;
67717;SDS011;54511;47.532;19.180;2022-09-12T16:51:57;13.27;;;2.00;;
67717;SDS011;54511;47.532;19.180;2022-09-12T16:55:16;7.18;;;1.33;;
67717;SDS011;54511;47.532;19.180;2022-09-12T16:58:06;4.82;;;1.02;;
67717;SDS011;54511;47.532;19.180;2022-09-12T17:00:58;2.15;;;1.10;;
67717;SDS011;54511;47.532;19.180;2022-09-12T17:04:30;7.25;;;1.15;;
67717;SDS011;54511;47.532;19.180;2022-09-12T17:07:46;5.25;;;1.60;;
67717;SDS011;54511;47.532;19.180;2022-09-12T17:10:33;5.28;;;1.17;;
67717;SDS011;54511;47.532;19.180;2022-09-12T17:14:10;5.37;;;1.27;;
67717;SDS011;54511;47.532;19.180;2022-09-12T17:17:18;7.18;;;1.50;;
67717;SDS011;54511;47.532;19.180;2022-09-12T17:20:47;11.98;;;2.22;;
67717;SDS011;54511;47.532;19.180;2022-09-12T17:24:16;5.45;;;1.42;;
67717;SDS011;54511;47.532;19.180;2022-09-12T17:27:32;5.65;;;1.60;;
67717;SDS011;54511;47.532;19.180;2022-09-12T17:30:36;7.43;;;1.42;;
67717;SDS011;54511;47.532;19.180;2022-09-12T17:34:08;2.40;;;1.20;;
67717;SDS011;54511;47.532;19.180;2022-09-12T17:37:20;2.70;;;1.33;;
67717;SDS011;54511;47.532;19.180;2022-09-12T17:40:08;3.22;;;1.27;;
67717;SDS011;54511;47.532;19.180;2022-09-12T17:42:56;3.62;;;1.30;;
67717;SDS011;54511;47.532;19.180;2022-09-12T17:46:03;3.67;;;1.30;;
67717;SDS011;54511;47.532;19.180;2022-09-12T17:48:43;5.40;;;1.37;;
67717;SDS011;54511;47.532;19.180;2022-09-12T17:52:21;13.65;;;2.35;;
67717;SDS011;54511;47.532;19.180;2022-09-12T17:55:28;2.85;;;1.67;;
67717;SDS011;54511;47.532;19.180;2022-09-12T17:58:56;4.43;;;1.52;;
67717;SDS011;54511;47.532;19.180;2022-09-12T18:02:27;3.67;;;1.52;;
67717;SDS011;54511;47.532;19.180;2022-09-12T18:05:51;3.42;;;1.40;;
67717;SDS011;54511;47.532;19.180;2022-09-12T18:12:25;1.95;;;1.20;;
67717;SDS011;54511;47.532;19.180;2022-09-12T18:15:50;2.35;;;1.50;;
67717;SDS011;54511;47.532;19.180;2022-09-12T18:19:05;6.40;;;1.50;;
67717;SDS011;54511;47.532;19.180;2022-09-12T18:22:39;5.15;;;1.70;;
67717;SDS011;54511;47.532;19.180;2022-09-12T18:25:46;5.97;;;1.52;;
67717;SDS011;54511;47.532;19.180;2022-09-12T18:32:45;2.85;;;1.50;;
67717;SDS011;54511;47.532;19.180;2022-09-12T18:36:14;3.12;;;1.35;;
67717;SDS011;54511;47.532;19.180;2022-09-12T18:39:25;2.12;;;1.30;;
67717;SDS011;54511;47.532;19.180;2022-09-12T18:42:46;2.75;;;1.50;;
67717;SDS011;54511;47.532;19.180;2022-09-12T18:45:55;4.68;;;1.62;;
67717;SDS011;54511;47.532;19.180;2022-09-12T18:49:28;5.40;;;1.60;;
67717;SDS011;54511;47.532;19.180;2022-09-12T18:53:02;3.22;;;1.55;;
67717;SDS011;54511;47.532;19.180;2022-09-12T18:59:34;3.78;;;1.80;;
67717;SDS011;54511;47.532;19.180;2022-09-12T19:03:06;11.25;;;2.15;;
67717;SDS011;54511;47.532;19.180;2022-09-12T19:06:14;28.52;;;2.42;;
67717;SDS011;54511;47.532;19.180;2022-09-12T19:09:41;6.47;;;1.55;;
67717;SDS011;54511;47.532;19.180;2022-09-12T19:12:48;7.05;;;1.85;;
67717;SDS011;54511;47.532;19.180;2022-09-12T19:15:37;3.62;;;2.20;;
67717;SDS011;54511;47.532;19.180;2022-09-12T19:18:51;3.85;;;1.90;;
67717;SDS011;54511;47.532;19.180;2022-09-12T19:21:58;3.92;;;1.73;;
67717;SDS011;54511;47.532;19.180;2022-09-12T19:24:45;4.12;;;2.10;;
67717;SDS011;54511;47.532;19.180;2022-09-12T19:27:32;5.87;;;2.10;;
67717;SDS011;54511;47.532;19.180;2022-09-12T19:30:19;4.68;;;2.00;;
67717;SDS011;54511;47.532;19.180;2022-09-12T19:33:06;4.65;;;2.00;;
67717;SDS011;54511;47.532;19.180;2022-09-12T19:35:35;5.25;;;2.33;;
67717;SDS011;54511;47.532;19.180;2022-09-12T19:38:22;4.30;;;2.20;;
67717;SDS011;54511;47.532;19.180;2022-09-12T19:41:10;4.65;;;2.37;;
67717;SDS011;54511;47.532;19.180;2022-09-12T19:44:16;11.57;;;2.30;;
67717;SDS011;54511;47.532;19.180;2022-09-12T19:46:49;8.68;;;2.50;;
67717;SDS011;54511;47.532;19.180;2022-09-12T19:49:17;7.03;;;2.30;;
67717;SDS011;54511;47.532;19.180;2022-09-12T19:52:05;5.37;;;2.22;;
67717;SDS011;54511;47.532;19.180;2022-09-12T19:54:32;3.05;;;1.92;;
67717;SDS011;54511;47.532;19.180;2022-09-12T19:57:02;7.35;;;2.20;;
67717;SDS011;54511;47.532;19.180;2022-09-12T19:59:49;4.25;;;2.20;;
67717;SDS011;54511;47.532;19.180;2022-09-12T20:02:36;4.45;;;2.12;;
67717;SDS011;54511;47.532;19.180;2022-09-12T20:05:42;3.80;;;2.20;;
67717;SDS011;54511;47.532;19.180;2022-09-12T20:08:31;4.80;;;2.42;;
67717;SDS011;54511;47.532;19.180;2022-09-12T20:11:38;3.83;;;2.30;;
67717;SDS011;54511;47.532;19.180;2022-09-12T20:14:25;3.95;;;1.98;;
67717;SDS011;54511;47.532;19.180;2022-09-12T20:17:12;5.15;;;1.92;;
67717;SDS011;54511;47.532;19.180;2022-09-12T20:19:59;5.35;;;2.05;;
67717;SDS011;54511;47.532;19.180;2022-09-12T20:23:26;3.78;;;2.20;;
67717;SDS011;54511;47.532;19.180;2022-09-12T20:26:14;5.15;;;2.20;;
67717;SDS011;54511;47.532;19.180;2022-09-12T20:29:42;3.97;;;2.20;;
67717;SDS011;54511;47.532;19.180;2022-09-12T20:32:29;3.58;;;2.08;;
67717;SDS011;54511;47.532;19.180;2022-09-12T20:35:16;4.37;;;2.28;;
67717;SDS011;54511;47.532;19.180;2022-09-12T20:38:03;6.18;;;2.47;;
67717;SDS011;54511;47.532;19.180;2022-09-12T20:40:30;5.18;;;2.62;;
67717;SDS011;54511;47.532;19.180;2022-09-12T20:43:19;4.28;;;2.20;;
67717;SDS011;54511;47.532;19.180;2022-09-12T20:46:26;4.40;;;2.20;;
67717;SDS011;54511;47.532;19.180;2022-09-12T20:49:33;6.62;;;2.50;;
67717;SDS011;54511;47.532;19.180;2022-09-12T20:52:20;4.90;;;2.35;;
67717;SDS011;54511;47.532;19.180;2022-09-12T20:55:08;7.22;;;2.33;;
67717;SDS011;54511;47.532;19.180;2022-09-12T20:57:55;5.03;;;2.03;;
67717;SDS011;54511;47.532;19.180;2022-09-12T21:00:23;4.18;;;2.20;;
67717;SDS011;54511;47.532;19.180;2022-09-12T21:02:51;3.42;;;2.10;;
67717;SDS011;54511;47.532;19.180;2022-09-12T21:05:18;18.50;;;2.83;;
67717;SDS011;54511;47.532;19.180;2022-09-12T21:07:50;4.22;;;2.28;;
67717;SDS011;54511;47.532;19.180;2022-09-12T21:10:22;3.12;;;2.10;;
67717;SDS011;54511;47.532;19.180;2022-09-12T21:13:09;3.97;;;2.30;;
67717;SDS011;54511;47.532;19.180;2022-09-12T21:15:42;3.75;;;2.22;;
67717;SDS011;54511;47.532;19.180;2022-09-12T21:18:35;4.32;;;2.20;;
67717;SDS011;54511;47.532;19.180;2022-09-12T21:21:23;5.35;;;2.30;;
67717;SDS011;54511;47.532;19.180;2022-09-12T21:24:10;3.53;;;2.05;;
67717;SDS011;54511;47.532;19.180;2022-09-12T21:26:39;4.00;;;1.92;;
67717;SDS011;54511;47.532;19.180;2022-09-12T21:29:06;16.20;;;2.75;;
67717;SDS011;54511;47.532;19.180;2022-09-12T21:31:34;4.35;;;2.30;;
67717;SDS011;54511;47.532;19.180;2022-09-12T21:34:12;10.75;;;2.30;;
67717;SDS011;54511;47.532;19.180;2022-09-12T21:36:59;5.72;;;2.30;;
67717;SDS011;54511;47.532;19.180;2022-09-12T21:39:36;5.82;;;2.03;;
67717;SDS011;54511;47.532;19.180;2022-09-12T21:42:03;4.80;;;2.60;;
67717;SDS011;54511;47.532;19.180;2022-09-12T21:44:30;4.97;;;2.20;;
67717;SDS011;54511;47.532;19.180;2022-09-12T21:46:59;3.60;;;2.20;;
67717;SDS011;54511;47.532;19.180;2022-09-12T21:49:43;3.12;;;2.17;;
67717;SDS011;54511;47.532;19.180;2022-09-12T21:52:30;4.28;;;2.33;;
67717;SDS011;54511;47.532;19.180;2022-09-12T21:54:57;4.00;;;2.12;;
67717;SDS011;54511;47.532;19.180;2022-09-12T21:57:26;3.72;;;2.10;;
67717;SDS011;54511;47.532;19.180;2022-09-12T22:00:03;6.05;;;2.35;;
67717;SDS011;54511;47.532;19.180;2022-09-12T22:02:51;4.87;;;2.20;;
67717;SDS011;54511;47.532;19.180;2022-09-12T22:05:22;5.15;;;2.33;;
67717;SDS011;54511;47.532;19.180;2022-09-12T22:07:49;3.92;;;2.60;;
67717;SDS011;54511;47.532;19.180;2022-09-12T22:10:37;5.25;;;2.37;;
67717;SDS011;54511;47.532;19.180;2022-09-12T22:13:05;7.28;;;2.22;;
67717;SDS011;54511;47.532;19.180;2022-09-12T22:15:52;4.95;;;2.20;;
67717;SDS011;54511;47.532;19.180;2022-09-12T22:18:43;4.07;;;2.20;;
67717;SDS011;54511;47.532;19.180;2022-09-12T22:21:48;4.20;;;2.50;;
67717;SDS011;54511;47.532;19.180;2022-09-12T22:24:33;3.17;;;2.20;;
67717;SDS011;54511;47.532;19.180;2022-09-12T22:27:00;4.50;;;2.45;;
67717;SDS011;54511;47.532;19.180;2022-09-12T22:29:32;18.73;;;2.67;;
67717;SDS011;54511;47.532;19.180;2022-09-12T22:32:39;7.95;;;2.50;;
67717;SDS011;54511;47.532;19.180;2022-09-12T22:35:31;8.20;;;2.20;;
67717;SDS011;54511;47.532;19.180;2022-09-12T22:38:19;5.53;;;2.70;;
67717;SDS011;54511;47.532;19.180;2022-09-12T22:40:50;3.75;;;2.20;;
67717;SDS011;54511;47.532;19.180;2022-09-12T22:43:43;5.62;;;2.30;;
67717;SDS011;54511;47.532;19.180;2022-09-12T22:46:30;4.28;;;2.17;;
67717;SDS011;54511;47.532;19.180;2022-09-12T22:49:06;3.75;;;2.30;;
67717;SDS011;54511;47.532;19.180;2022-09-12T22:51:37;4.03;;;2.40;;
67717;SDS011;54511;47.532;19.180;2022-09-12T22:54:08;6.55;;;2.10;;
67717;SDS011;54511;47.532;19.180;2022-09-12T22:56:36;4.25;;;2.22;;
67717;SDS011;54511;47.532;19.180;2022-09-12T22:59:03;5.72;;;2.40;;
67717;SDS011;54511;47.532;19.180;2022-09-12T23:01:30;3.83;;;2.10;;
67717;SDS011;54511;47.532;19.180;2022-09-12T23:04:22;4.25;;;2.20;;
67717;SDS011;54511;47.532;19.180;2022-09-12T23:07:11;5.28;;;2.60;;
67717;SDS011;54511;47.532;19.180;2022-09-12T23:09:38;4.78;;;2.40;;
67717;SDS011;54511;47.532;19.180;2022-09-12T23:12:10;3.70;;;2.62;;
67717;SDS011;54511;47.532;19.180;2022-09-12T23:14:38;3.62;;;2.60;;
67717;SDS011;54511;47.532;19.180;2022-09-12T23:17:05;4.95;;;2.47;;
67717;SDS011;54511;47.532;19.180;2022-09-12T23:19:32;4.07;;;2.50;;
67717;SDS011;54511;47.532;19.180;2022-09-12T23:22:04;6.30;;;2.83;;
67717;SDS011;54511;47.532;19.180;2022-09-12T23:24:33;5.25;;;2.25;;
67717;SDS011;54511;47.532;19.180;2022-09-12T23:27:01;4.78;;;2.72;;
67717;SDS011;54511;47.532;19.180;2022-09-12T23:29:48;4.35;;;2.20;;
67717;SDS011;54511;47.532;19.180;2022-09-12T23:32:16;3.40;;;2.37;;
67717;SDS011;54511;47.532;19.180;2022-09-12T23:34:45;4.28;;;2.53;;
67717;SDS011;54511;47.532;19.180;2022-09-12T23:37:13;5.72;;;2.40;;
67717;SDS011;54511;47.532;19.180;2022-09-12T23:39:42;3.80;;;2.45;;
67717;SDS011;54511;47.532;19.180;2022-09-12T23:42:26;3.50;;;2.30;;
67717;SDS011;54511;47.532;19.180;2022-09-12T23:44:53;4.97;;;2.60;;
67717;SDS011;54511;47.532;19.180;2022-09-12T23:47:20;6.15;;;2.70;;
67717;SDS011;54511;47.532;19.180;2022-09-12T23:50:07;4.72;;;2.50;;
67717;SDS011;54511;47.532;19.180;2022-09-12T23:52:35;4.82;;;2.80;;
67717;SDS011;54511;47.532;19.180;2022-09-12T23:55:21;4.03;;;2.50;;
67717;SDS011;54511;47.532;19.180;2022-09-12T23:57:48;3.20;;;2.33;;
